sensor_id;sensor_type;location;lat;lon;timestamp;P1;durP1;ratioP1;P2;durP2;ratioP2
74541;SDS011;63015;45.378;20.360;2023-05-10T00:01:15;9.32;;;4.60;;
74541;SDS011;63015;45.378;20.360;2023-05-10T00:03:16;7.72;;;4.53;;
74541;SDS011;63015;45.378;20.360;2023-05-10T00:05:16;9.43;;;4.63;;
74541;SDS011;63015;45.378;20.360;2023-05-10T00:07:17;7.55;;;4.38;;
74541;SDS011;63015;45.378;20.360;2023-05-10T00:09:18;5.25;;;2.80;;
74541;SDS011;63015;45.378;20.360;2023-05-10T00:11:18;7.95;;;4.00;;
74541;SDS011;63015;45.378;20.360;2023-05-10T00:13:20;8.10;;;4.07;;
74541;SDS011;63015;45.378;20.360;2023-05-10T00:15:20;7.78;;;2.95;;
74541;SDS011;63015;45.378;20.360;2023-05-10T00:17:21;7.50;;;4.05;;
74541;SDS011;63015;45.378;20.360;2023-05-10T00:19:22;6.85;;;3.63;;
74541;SDS011;63015;45.378;20.360;2023-05-10T00:21:22;6.63;;;3.47;;
74541;SDS011;63015;45.378;20.360;2023-05-10T00:23:23;6.70;;;4.03;;
74541;SDS011;63015;45.378;20.360;2023-05-10T00:25:23;6.93;;;3.55;;
74541;SDS011;63015;45.378;20.360;2023-05-10T00:27:24;9.05;;;5.05;;
74541;SDS011;63015;45.378;20.360;2023-05-10T00:29:25;6.82;;;3.97;;
74541;SDS011;63015;45.378;20.360;2023-05-10T00:31:25;6.70;;;3.72;;
74541;SDS011;63015;45.378;20.360;2023-05-10T00:33:26;7.10;;;3.90;;
74541;SDS011;63015;45.378;20.360;2023-05-10T00:35:27;7.85;;;3.40;;
74541;SDS011;63015;45.378;20.360;2023-05-10T00:37:27;9.40;;;4.03;;
74541;SDS011;63015;45.378;20.360;2023-05-10T00:39:28;6.43;;;4.18;;
74541;SDS011;63015;45.378;20.360;2023-05-10T00:41:29;6.53;;;4.00;;
74541;SDS011;63015;45.378;20.360;2023-05-10T00:43:33;7.47;;;4.30;;
74541;SDS011;63015;45.378;20.360;2023-05-10T00:45:34;7.15;;;4.07;;
74541;SDS011;63015;45.378;20.360;2023-05-10T00:47:36;6.82;;;3.28;;
74541;SDS011;63015;45.378;20.360;2023-05-10T00:49:37;6.60;;;3.22;;
74541;SDS011;63015;45.378;20.360;2023-05-10T00:51:38;5.78;;;2.60;;
74541;SDS011;63015;45.378;20.360;2023-05-10T00:53:39;6.95;;;3.88;;
74541;SDS011;63015;45.378;20.360;2023-05-10T00:55:41;9.23;;;4.22;;
74541;SDS011;63015;45.378;20.360;2023-05-10T00:57:41;7.50;;;4.32;;
74541;SDS011;63015;45.378;20.360;2023-05-10T00:59:43;6.35;;;3.40;;
74541;SDS011;63015;45.378;20.360;2023-05-10T01:01:44;7.30;;;3.90;;
74541;SDS011;63015;45.378;20.360;2023-05-10T01:03:46;8.05;;;3.80;;
74541;SDS011;63015;45.378;20.360;2023-05-10T01:05:47;6.88;;;3.92;;
74541;SDS011;63015;45.378;20.360;2023-05-10T01:07:47;8.88;;;4.55;;
74541;SDS011;63015;45.378;20.360;2023-05-10T01:09:48;8.15;;;4.50;;
74541;SDS011;63015;45.378;20.360;2023-05-10T01:11:49;7.47;;;4.28;;
74541;SDS011;63015;45.378;20.360;2023-05-10T01:13:52;9.85;;;5.72;;
74541;SDS011;63015;45.378;20.360;2023-05-10T01:15:56;12.63;;;7.20;;
74541;SDS011;63015;45.378;20.360;2023-05-10T01:17:58;17.33;;;7.90;;
74541;SDS011;63015;45.378;20.360;2023-05-10T01:20:00;15.15;;;8.35;;
74541;SDS011;63015;45.378;20.360;2023-05-10T01:27:17;7.25;;;4.63;;
74541;SDS011;63015;45.378;20.360;2023-05-10T01:31:57;9.00;;;4.75;;
74541;SDS011;63015;45.378;20.360;2023-05-10T01:34:21;6.90;;;3.38;;
74541;SDS011;63015;45.378;20.360;2023-05-10T01:36:34;6.80;;;3.70;;
74541;SDS011;63015;45.378;20.360;2023-05-10T01:39:25;8.80;;;5.75;;
74541;SDS011;63015;45.378;20.360;2023-05-10T01:43:21;8.27;;;3.85;;
74541;SDS011;63015;45.378;20.360;2023-05-10T01:45:38;9.40;;;4.30;;
74541;SDS011;63015;45.378;20.360;2023-05-10T01:49:50;6.57;;;3.60;;
74541;SDS011;63015;45.378;20.360;2023-05-10T01:51:57;9.32;;;4.63;;
74541;SDS011;63015;45.378;20.360;2023-05-10T01:54:04;10.35;;;5.28;;
74541;SDS011;63015;45.378;20.360;2023-05-10T01:56:06;8.73;;;4.80;;
74541;SDS011;63015;45.378;20.360;2023-05-10T02:00:42;8.55;;;5.03;;
74541;SDS011;63015;45.378;20.360;2023-05-10T02:02:45;11.35;;;5.53;;
74541;SDS011;63015;45.378;20.360;2023-05-10T02:04:48;8.82;;;5.18;;
74541;SDS011;63015;45.378;20.360;2023-05-10T02:06:51;9.07;;;5.05;;
74541;SDS011;63015;45.378;20.360;2023-05-10T02:08:53;10.02;;;6.07;;
74541;SDS011;63015;45.378;20.360;2023-05-10T02:10:56;9.85;;;6.18;;
74541;SDS011;63015;45.378;20.360;2023-05-10T02:12:58;10.18;;;5.35;;
74541;SDS011;63015;45.378;20.360;2023-05-10T02:15:00;8.00;;;4.88;;
74541;SDS011;63015;45.378;20.360;2023-05-10T02:17:05;8.43;;;5.40;;
74541;SDS011;63015;45.378;20.360;2023-05-10T02:21:09;9.38;;;4.78;;
74541;SDS011;63015;45.378;20.360;2023-05-10T02:23:13;12.15;;;5.43;;
74541;SDS011;63015;45.378;20.360;2023-05-10T02:25:15;9.00;;;6.13;;
74541;SDS011;63015;45.378;20.360;2023-05-10T02:27:18;10.60;;;4.70;;
74541;SDS011;63015;45.378;20.360;2023-05-10T02:29:20;9.75;;;5.65;;
74541;SDS011;63015;45.378;20.360;2023-05-10T02:33:24;6.63;;;3.42;;
74541;SDS011;63015;45.378;20.360;2023-05-10T02:35:26;9.90;;;4.72;;
74541;SDS011;63015;45.378;20.360;2023-05-10T02:37:28;9.27;;;5.03;;
74541;SDS011;63015;45.378;20.360;2023-05-10T02:39:30;9.60;;;5.50;;
74541;SDS011;63015;45.378;20.360;2023-05-10T02:41:32;7.07;;;3.85;;
74541;SDS011;63015;45.378;20.360;2023-05-10T02:43:33;7.40;;;3.95;;
74541;SDS011;63015;45.378;20.360;2023-05-10T02:45:35;10.20;;;5.38;;
74541;SDS011;63015;45.378;20.360;2023-05-10T02:49:39;9.05;;;4.65;;
74541;SDS011;63015;45.378;20.360;2023-05-10T02:51:45;7.68;;;3.85;;
74541;SDS011;63015;45.378;20.360;2023-05-10T02:53:51;9.63;;;5.00;;
74541;SDS011;63015;45.378;20.360;2023-05-10T02:55:53;7.25;;;3.88;;
74541;SDS011;63015;45.378;20.360;2023-05-10T02:58:01;9.80;;;4.28;;
74541;SDS011;63015;45.378;20.360;2023-05-10T03:00:02;8.48;;;4.97;;
74541;SDS011;63015;45.378;20.360;2023-05-10T03:02:03;8.43;;;4.95;;
74541;SDS011;63015;45.378;20.360;2023-05-10T03:04:05;6.25;;;3.40;;
74541;SDS011;63015;45.378;20.360;2023-05-10T03:06:06;9.35;;;5.18;;
74541;SDS011;63015;45.378;20.360;2023-05-10T03:08:07;8.07;;;5.07;;
74541;SDS011;63015;45.378;20.360;2023-05-10T03:10:08;8.20;;;4.38;;
74541;SDS011;63015;45.378;20.360;2023-05-10T03:12:22;7.03;;;3.35;;
74541;SDS011;63015;45.378;20.360;2023-05-10T03:17:04;10.55;;;4.75;;
74541;SDS011;63015;45.378;20.360;2023-05-10T03:19:17;8.80;;;5.03;;
74541;SDS011;63015;45.378;20.360;2023-05-10T03:21:25;7.90;;;5.07;;
74541;SDS011;63015;45.378;20.360;2023-05-10T03:23:32;8.15;;;4.38;;
74541;SDS011;63015;45.378;20.360;2023-05-10T03:25:36;7.43;;;4.00;;
74541;SDS011;63015;45.378;20.360;2023-05-10T03:27:40;7.68;;;4.78;;
74541;SDS011;63015;45.378;20.360;2023-05-10T03:29:43;5.93;;;3.10;;
74541;SDS011;63015;45.378;20.360;2023-05-10T03:31:47;9.30;;;4.60;;
74541;SDS011;63015;45.378;20.360;2023-05-10T03:33:49;6.50;;;3.40;;
74541;SDS011;63015;45.378;20.360;2023-05-10T03:35:56;9.07;;;4.00;;
74541;SDS011;63015;45.378;20.360;2023-05-10T03:37:56;7.40;;;4.13;;
74541;SDS011;63015;45.378;20.360;2023-05-10T03:39:57;8.05;;;3.83;;
74541;SDS011;63015;45.378;20.360;2023-05-10T03:41:58;4.45;;;2.25;;
74541;SDS011;63015;45.378;20.360;2023-05-10T03:43:58;6.25;;;3.97;;
74541;SDS011;63015;45.378;20.360;2023-05-10T03:46:01;6.13;;;3.60;;
74541;SDS011;63015;45.378;20.360;2023-05-10T03:48:05;7.72;;;4.15;;
74541;SDS011;63015;45.378;20.360;2023-05-10T03:50:06;6.72;;;3.83;;
74541;SDS011;63015;45.378;20.360;2023-05-10T03:52:07;5.75;;;3.50;;
74541;SDS011;63015;45.378;20.360;2023-05-10T03:54:08;10.82;;;4.32;;
74541;SDS011;63015;45.378;20.360;2023-05-10T03:56:09;7.25;;;2.95;;
74541;SDS011;63015;45.378;20.360;2023-05-10T03:58:10;6.78;;;3.70;;
74541;SDS011;63015;45.378;20.360;2023-05-10T04:00:11;6.50;;;3.42;;
74541;SDS011;63015;45.378;20.360;2023-05-10T04:02:15;6.47;;;3.65;;
74541;SDS011;63015;45.378;20.360;2023-05-10T04:04:16;7.88;;;3.90;;
74541;SDS011;63015;45.378;20.360;2023-05-10T04:06:18;9.10;;;4.28;;
74541;SDS011;63015;45.378;20.360;2023-05-10T04:08:19;7.00;;;4.40;;
74541;SDS011;63015;45.378;20.360;2023-05-10T04:10:20;9.05;;;4.32;;
74541;SDS011;63015;45.378;20.360;2023-05-10T04:12:21;6.00;;;3.88;;
74541;SDS011;63015;45.378;20.360;2023-05-10T04:14:21;6.43;;;3.55;;
74541;SDS011;63015;45.378;20.360;2023-05-10T04:16:22;6.18;;;3.60;;
74541;SDS011;63015;45.378;20.360;2023-05-10T04:18:23;9.18;;;4.15;;
74541;SDS011;63015;45.378;20.360;2023-05-10T04:20:23;5.32;;;2.85;;
74541;SDS011;63015;45.378;20.360;2023-05-10T04:22:24;6.63;;;3.90;;
74541;SDS011;63015;45.378;20.360;2023-05-10T04:24:25;6.03;;;3.08;;
74541;SDS011;63015;45.378;20.360;2023-05-10T04:26:25;7.28;;;3.83;;
74541;SDS011;63015;45.378;20.360;2023-05-10T04:28:26;6.00;;;3.72;;
74541;SDS011;63015;45.378;20.360;2023-05-10T04:30:27;4.65;;;2.67;;
74541;SDS011;63015;45.378;20.360;2023-05-10T04:32:29;11.35;;;4.50;;
74541;SDS011;63015;45.378;20.360;2023-05-10T04:34:29;8.80;;;3.83;;
74541;SDS011;63015;45.378;20.360;2023-05-10T04:36:30;8.18;;;4.05;;
74541;SDS011;63015;45.378;20.360;2023-05-10T04:38:32;7.55;;;3.80;;
74541;SDS011;63015;45.378;20.360;2023-05-10T04:40:33;7.28;;;3.45;;
74541;SDS011;63015;45.378;20.360;2023-05-10T04:42:34;6.70;;;3.58;;
74541;SDS011;63015;45.378;20.360;2023-05-10T04:44:35;6.13;;;4.07;;
74541;SDS011;63015;45.378;20.360;2023-05-10T04:46:36;8.48;;;3.75;;
74541;SDS011;63015;45.378;20.360;2023-05-10T04:48:37;5.65;;;3.50;;
74541;SDS011;63015;45.378;20.360;2023-05-10T04:50:37;3.45;;;1.80;;
74541;SDS011;63015;45.378;20.360;2023-05-10T04:52:39;5.60;;;3.10;;
74541;SDS011;63015;45.378;20.360;2023-05-10T04:54:40;7.43;;;4.03;;
74541;SDS011;63015;45.378;20.360;2023-05-10T04:56:40;9.43;;;4.63;;
74541;SDS011;63015;45.378;20.360;2023-05-10T04:58:41;7.53;;;4.95;;
74541;SDS011;63015;45.378;20.360;2023-05-10T05:00:41;8.50;;;4.78;;
74541;SDS011;63015;45.378;20.360;2023-05-10T05:02:43;9.23;;;4.47;;
74541;SDS011;63015;45.378;20.360;2023-05-10T05:04:45;12.75;;;4.65;;
74541;SDS011;63015;45.378;20.360;2023-05-10T05:06:45;7.00;;;3.65;;
74541;SDS011;63015;45.378;20.360;2023-05-10T05:08:46;9.20;;;4.70;;
74541;SDS011;63015;45.378;20.360;2023-05-10T05:10:47;8.90;;;4.05;;
74541;SDS011;63015;45.378;20.360;2023-05-10T05:14:50;4.95;;;2.85;;
74541;SDS011;63015;45.378;20.360;2023-05-10T05:16:51;8.05;;;4.38;;
74541;SDS011;63015;45.378;20.360;2023-05-10T05:18:52;6.30;;;3.47;;
74541;SDS011;63015;45.378;20.360;2023-05-10T05:20:53;5.63;;;3.45;;
74541;SDS011;63015;45.378;20.360;2023-05-10T05:22:54;8.15;;;4.55;;
74541;SDS011;63015;45.378;20.360;2023-05-10T05:24:55;8.95;;;4.38;;
74541;SDS011;63015;45.378;20.360;2023-05-10T05:26:56;8.05;;;4.97;;
74541;SDS011;63015;45.378;20.360;2023-05-10T05:28:57;8.50;;;4.35;;
74541;SDS011;63015;45.378;20.360;2023-05-10T05:30:57;6.05;;;3.50;;
74541;SDS011;63015;45.378;20.360;2023-05-10T05:32:58;5.75;;;3.10;;
74541;SDS011;63015;45.378;20.360;2023-05-10T05:34:59;7.22;;;3.60;;
74541;SDS011;63015;45.378;20.360;2023-05-10T05:36:59;5.68;;;3.35;;
74541;SDS011;63015;45.378;20.360;2023-05-10T05:39:00;8.73;;;3.28;;
74541;SDS011;63015;45.378;20.360;2023-05-10T05:41:01;6.97;;;3.58;;
74541;SDS011;63015;45.378;20.360;2023-05-10T05:43:01;10.70;;;3.72;;
74541;SDS011;63015;45.378;20.360;2023-05-10T05:45:02;5.60;;;2.90;;
74541;SDS011;63015;45.378;20.360;2023-05-10T05:47:03;6.25;;;2.80;;
74541;SDS011;63015;45.378;20.360;2023-05-10T05:49:04;6.93;;;3.47;;
74541;SDS011;63015;45.378;20.360;2023-05-10T05:51:04;7.75;;;4.18;;
74541;SDS011;63015;45.378;20.360;2023-05-10T05:53:05;5.53;;;2.58;;
74541;SDS011;63015;45.378;20.360;2023-05-10T05:55:06;7.90;;;3.22;;
74541;SDS011;63015;45.378;20.360;2023-05-10T05:57:07;6.07;;;3.35;;
74541;SDS011;63015;45.378;20.360;2023-05-10T05:59:08;5.85;;;3.10;;
74541;SDS011;63015;45.378;20.360;2023-05-10T06:01:08;6.53;;;2.92;;
74541;SDS011;63015;45.378;20.360;2023-05-10T06:03:09;5.18;;;3.50;;
74541;SDS011;63015;45.378;20.360;2023-05-10T06:05:10;5.60;;;3.28;;
74541;SDS011;63015;45.378;20.360;2023-05-10T06:07:11;4.95;;;2.03;;
74541;SDS011;63015;45.378;20.360;2023-05-10T06:09:12;5.45;;;3.13;;
74541;SDS011;63015;45.378;20.360;2023-05-10T06:11:12;10.15;;;2.47;;
74541;SDS011;63015;45.378;20.360;2023-05-10T06:13:13;6.57;;;3.22;;
74541;SDS011;63015;45.378;20.360;2023-05-10T06:15:14;5.32;;;3.05;;
74541;SDS011;63015;45.378;20.360;2023-05-10T06:17:14;9.10;;;3.35;;
74541;SDS011;63015;45.378;20.360;2023-05-10T06:19:15;5.53;;;3.42;;
74541;SDS011;63015;45.378;20.360;2023-05-10T06:21:16;6.55;;;3.30;;
74541;SDS011;63015;45.378;20.360;2023-05-10T06:23:16;6.18;;;2.75;;
74541;SDS011;63015;45.378;20.360;2023-05-10T06:25:17;5.75;;;3.30;;
74541;SDS011;63015;45.378;20.360;2023-05-10T06:27:18;4.88;;;3.03;;
74541;SDS011;63015;45.378;20.360;2023-05-10T06:29:18;9.93;;;2.85;;
74541;SDS011;63015;45.378;20.360;2023-05-10T06:31:19;5.18;;;2.78;;
74541;SDS011;63015;45.378;20.360;2023-05-10T06:33:20;4.75;;;3.15;;
74541;SDS011;63015;45.378;20.360;2023-05-10T06:35:20;5.72;;;3.47;;
74541;SDS011;63015;45.378;20.360;2023-05-10T06:37:21;8.32;;;3.03;;
74541;SDS011;63015;45.378;20.360;2023-05-10T06:39:21;5.47;;;2.38;;
74541;SDS011;63015;45.378;20.360;2023-05-10T06:41:22;8.15;;;3.58;;
74541;SDS011;63015;45.378;20.360;2023-05-10T06:43:23;10.25;;;3.90;;
74541;SDS011;63015;45.378;20.360;2023-05-10T06:45:25;6.72;;;3.10;;
74541;SDS011;63015;45.378;20.360;2023-05-10T06:47:25;5.70;;;2.60;;
74541;SDS011;63015;45.378;20.360;2023-05-10T06:49:26;4.18;;;2.05;;
74541;SDS011;63015;45.378;20.360;2023-05-10T06:51:26;7.07;;;3.00;;
74541;SDS011;63015;45.378;20.360;2023-05-10T06:53:27;6.72;;;2.92;;
74541;SDS011;63015;45.378;20.360;2023-05-10T06:55:28;5.30;;;3.03;;
74541;SDS011;63015;45.378;20.360;2023-05-10T06:57:29;7.13;;;3.55;;
74541;SDS011;63015;45.378;20.360;2023-05-10T06:59:30;7.30;;;2.78;;
74541;SDS011;63015;45.378;20.360;2023-05-10T07:01:31;5.43;;;3.05;;
74541;SDS011;63015;45.378;20.360;2023-05-10T07:03:31;10.63;;;2.70;;
74541;SDS011;63015;45.378;20.360;2023-05-10T07:05:32;5.35;;;2.78;;
74541;SDS011;63015;45.378;20.360;2023-05-10T07:07:32;7.05;;;3.30;;
74541;SDS011;63015;45.378;20.360;2023-05-10T07:09:33;5.15;;;2.25;;
74541;SDS011;63015;45.378;20.360;2023-05-10T07:11:34;4.55;;;2.30;;
74541;SDS011;63015;45.378;20.360;2023-05-10T07:13:35;8.25;;;3.03;;
74541;SDS011;63015;45.378;20.360;2023-05-10T07:15:36;4.78;;;2.55;;
74541;SDS011;63015;45.378;20.360;2023-05-10T07:17:37;5.93;;;2.10;;
74541;SDS011;63015;45.378;20.360;2023-05-10T07:19:37;6.88;;;2.15;;
74541;SDS011;63015;45.378;20.360;2023-05-10T07:21:38;5.95;;;2.58;;
74541;SDS011;63015;45.378;20.360;2023-05-10T07:23:40;5.22;;;3.00;;
74541;SDS011;63015;45.378;20.360;2023-05-10T07:25:41;4.10;;;2.13;;
74541;SDS011;63015;45.378;20.360;2023-05-10T07:27:41;4.60;;;2.97;;
74541;SDS011;63015;45.378;20.360;2023-05-10T07:29:42;5.38;;;2.50;;
74541;SDS011;63015;45.378;20.360;2023-05-10T07:31:43;5.38;;;2.95;;
74541;SDS011;63015;45.378;20.360;2023-05-10T07:33:43;9.02;;;4.28;;
74541;SDS011;63015;45.378;20.360;2023-05-10T07:35:44;12.15;;;3.70;;
74541;SDS011;63015;45.378;20.360;2023-05-10T07:37:44;7.40;;;3.30;;
74541;SDS011;63015;45.378;20.360;2023-05-10T07:39:45;8.98;;;3.25;;
74541;SDS011;63015;45.378;20.360;2023-05-10T07:41:46;9.82;;;3.28;;
74541;SDS011;63015;45.378;20.360;2023-05-10T07:43:46;7.22;;;3.10;;
74541;SDS011;63015;45.378;20.360;2023-05-10T07:45:47;4.93;;;3.17;;
74541;SDS011;63015;45.378;20.360;2023-05-10T07:47:47;6.63;;;2.88;;
74541;SDS011;63015;45.378;20.360;2023-05-10T07:49:48;5.68;;;2.33;;
74541;SDS011;63015;45.378;20.360;2023-05-10T07:51:49;7.15;;;3.67;;
74541;SDS011;63015;45.378;20.360;2023-05-10T07:53:50;5.25;;;3.10;;
74541;SDS011;63015;45.378;20.360;2023-05-10T07:55:51;7.20;;;3.67;;
74541;SDS011;63015;45.378;20.360;2023-05-10T07:57:54;7.43;;;3.70;;
74541;SDS011;63015;45.378;20.360;2023-05-10T07:59:55;5.97;;;2.40;;
74541;SDS011;63015;45.378;20.360;2023-05-10T08:01:55;5.25;;;2.75;;
74541;SDS011;63015;45.378;20.360;2023-05-10T08:03:56;8.07;;;3.33;;
74541;SDS011;63015;45.378;20.360;2023-05-10T08:05:56;8.95;;;3.45;;
74541;SDS011;63015;45.378;20.360;2023-05-10T08:07:57;6.40;;;2.67;;
74541;SDS011;63015;45.378;20.360;2023-05-10T08:09:59;6.05;;;2.55;;
74541;SDS011;63015;45.378;20.360;2023-05-10T08:12:00;4.68;;;2.70;;
74541;SDS011;63015;45.378;20.360;2023-05-10T08:14:01;10.57;;;2.28;;
74541;SDS011;63015;45.378;20.360;2023-05-10T08:16:01;5.60;;;2.40;;
74541;SDS011;63015;45.378;20.360;2023-05-10T08:18:02;5.05;;;2.85;;
74541;SDS011;63015;45.378;20.360;2023-05-10T08:20:04;4.15;;;2.17;;
74541;SDS011;63015;45.378;20.360;2023-05-10T08:22:05;7.15;;;2.80;;
74541;SDS011;63015;45.378;20.360;2023-05-10T08:24:06;9.73;;;2.47;;
74541;SDS011;63015;45.378;20.360;2023-05-10T08:26:07;7.60;;;2.35;;
74541;SDS011;63015;45.378;20.360;2023-05-10T08:28:07;4.88;;;2.15;;
74541;SDS011;63015;45.378;20.360;2023-05-10T08:30:09;5.07;;;3.58;;
74541;SDS011;63015;45.378;20.360;2023-05-10T08:32:10;5.82;;;2.22;;
74541;SDS011;63015;45.378;20.360;2023-05-10T08:34:10;7.78;;;2.67;;
74541;SDS011;63015;45.378;20.360;2023-05-10T08:36:11;5.18;;;2.33;;
74541;SDS011;63015;45.378;20.360;2023-05-10T08:38:14;5.32;;;2.22;;
74541;SDS011;63015;45.378;20.360;2023-05-10T08:40:14;7.28;;;2.60;;
74541;SDS011;63015;45.378;20.360;2023-05-10T08:42:16;4.78;;;2.17;;
74541;SDS011;63015;45.378;20.360;2023-05-10T08:44:22;4.43;;;1.77;;
74541;SDS011;63015;45.378;20.360;2023-05-10T08:46:23;6.78;;;2.13;;
74541;SDS011;63015;45.378;20.360;2023-05-10T08:48:24;5.15;;;1.73;;
74541;SDS011;63015;45.378;20.360;2023-05-10T08:50:25;6.60;;;1.63;;
74541;SDS011;63015;45.378;20.360;2023-05-10T08:52:25;4.18;;;1.88;;
74541;SDS011;63015;45.378;20.360;2023-05-10T08:54:28;5.30;;;2.05;;
74541;SDS011;63015;45.378;20.360;2023-05-10T08:56:30;6.75;;;2.03;;
74541;SDS011;63015;45.378;20.360;2023-05-10T08:58:30;5.07;;;1.98;;
74541;SDS011;63015;45.378;20.360;2023-05-10T09:00:32;3.70;;;2.03;;
74541;SDS011;63015;45.378;20.360;2023-05-10T09:02:33;7.13;;;2.08;;
74541;SDS011;63015;45.378;20.360;2023-05-10T09:04:35;6.05;;;2.22;;
74541;SDS011;63015;45.378;20.360;2023-05-10T09:06:36;5.03;;;1.80;;
74541;SDS011;63015;45.378;20.360;2023-05-10T09:08:37;6.00;;;2.13;;
74541;SDS011;63015;45.378;20.360;2023-05-10T09:10:38;9.18;;;1.55;;
74541;SDS011;63015;45.378;20.360;2023-05-10T09:12:40;4.22;;;1.67;;
74541;SDS011;63015;45.378;20.360;2023-05-10T09:14:41;3.97;;;1.42;;
74541;SDS011;63015;45.378;20.360;2023-05-10T09:16:44;4.68;;;1.80;;
74541;SDS011;63015;45.378;20.360;2023-05-10T09:18:45;6.63;;;1.55;;
74541;SDS011;63015;45.378;20.360;2023-05-10T09:20:46;6.35;;;1.90;;
74541;SDS011;63015;45.378;20.360;2023-05-10T09:22:46;5.38;;;1.85;;
74541;SDS011;63015;45.378;20.360;2023-05-10T09:24:47;5.72;;;1.50;;
74541;SDS011;63015;45.378;20.360;2023-05-10T09:26:48;4.15;;;1.15;;
74541;SDS011;63015;45.378;20.360;2023-05-10T09:28:50;3.70;;;1.70;;
74541;SDS011;63015;45.378;20.360;2023-05-10T09:30:53;5.90;;;1.52;;
74541;SDS011;63015;45.378;20.360;2023-05-10T09:32:56;4.40;;;1.90;;
74541;SDS011;63015;45.378;20.360;2023-05-10T09:34:57;4.07;;;1.80;;
74541;SDS011;63015;45.378;20.360;2023-05-10T09:37:15;4.05;;;1.80;;
74541;SDS011;63015;45.378;20.360;2023-05-10T09:39:16;4.70;;;2.00;;
74541;SDS011;63015;45.378;20.360;2023-05-10T09:41:23;3.50;;;1.13;;
74541;SDS011;63015;45.378;20.360;2023-05-10T09:43:25;4.50;;;1.63;;
74541;SDS011;63015;45.378;20.360;2023-05-10T09:45:26;6.25;;;1.73;;
74541;SDS011;63015;45.378;20.360;2023-05-10T09:47:28;4.55;;;1.70;;
74541;SDS011;63015;45.378;20.360;2023-05-10T09:49:29;4.50;;;1.67;;
74541;SDS011;63015;45.378;20.360;2023-05-10T09:51:30;3.85;;;1.88;;
74541;SDS011;63015;45.378;20.360;2023-05-10T09:53:30;6.20;;;1.85;;
74541;SDS011;63015;45.378;20.360;2023-05-10T09:55:38;3.45;;;1.25;;
74541;SDS011;63015;45.378;20.360;2023-05-10T09:57:46;5.10;;;2.33;;
74541;SDS011;63015;45.378;20.360;2023-05-10T09:59:48;4.40;;;2.22;;
74541;SDS011;63015;45.378;20.360;2023-05-10T10:01:50;8.57;;;1.60;;
74541;SDS011;63015;45.378;20.360;2023-05-10T10:03:51;5.03;;;1.50;;
74541;SDS011;63015;45.378;20.360;2023-05-10T10:05:53;4.35;;;1.10;;
74541;SDS011;63015;45.378;20.360;2023-05-10T10:07:59;3.25;;;1.42;;
74541;SDS011;63015;45.378;20.360;2023-05-10T10:10:00;3.50;;;1.52;;
74541;SDS011;63015;45.378;20.360;2023-05-10T10:12:02;5.95;;;1.40;;
74541;SDS011;63015;45.378;20.360;2023-05-10T10:14:02;5.53;;;1.60;;
74541;SDS011;63015;45.378;20.360;2023-05-10T10:16:05;5.85;;;1.65;;
74541;SDS011;63015;45.378;20.360;2023-05-10T10:18:06;4.75;;;1.88;;
74541;SDS011;63015;45.378;20.360;2023-05-10T10:20:11;5.28;;;1.67;;
74541;SDS011;63015;45.378;20.360;2023-05-10T10:22:12;11.32;;;1.60;;
74541;SDS011;63015;45.378;20.360;2023-05-10T10:24:13;4.57;;;1.48;;
74541;SDS011;63015;45.378;20.360;2023-05-10T10:26:14;3.22;;;1.42;;
74541;SDS011;63015;45.378;20.360;2023-05-10T10:28:32;5.28;;;2.00;;
74541;SDS011;63015;45.378;20.360;2023-05-10T10:30:54;7.40;;;1.80;;
74541;SDS011;63015;45.378;20.360;2023-05-10T10:35:03;3.88;;;1.67;;
74541;SDS011;63015;45.378;20.360;2023-05-10T10:37:05;3.40;;;1.67;;
74541;SDS011;63015;45.378;20.360;2023-05-10T10:39:08;6.43;;;1.50;;
74541;SDS011;63015;45.378;20.360;2023-05-10T10:41:10;6.40;;;1.70;;
74541;SDS011;63015;45.378;20.360;2023-05-10T10:43:32;4.68;;;1.52;;
74541;SDS011;63015;45.378;20.360;2023-05-10T10:45:32;5.03;;;1.40;;
74541;SDS011;63015;45.378;20.360;2023-05-10T10:47:33;3.50;;;1.10;;
74541;SDS011;63015;45.378;20.360;2023-05-10T10:51:40;7.38;;;1.13;;
74541;SDS011;63015;45.378;20.360;2023-05-10T10:54:08;5.25;;;1.10;;
74541;SDS011;63015;45.378;20.360;2023-05-10T10:56:12;5.45;;;1.20;;
74541;SDS011;63015;45.378;20.360;2023-05-10T10:58:30;5.55;;;1.27;;
74541;SDS011;63015;45.378;20.360;2023-05-10T11:00:38;7.72;;;1.27;;
74541;SDS011;63015;45.378;20.360;2023-05-10T11:04:42;4.97;;;1.50;;
74541;SDS011;63015;45.378;20.360;2023-05-10T11:06:46;8.43;;;1.25;;
74541;SDS011;63015;45.378;20.360;2023-05-10T11:08:46;5.30;;;1.00;;
74541;SDS011;63015;45.378;20.360;2023-05-10T11:13:04;7.07;;;1.20;;
74541;SDS011;63015;45.378;20.360;2023-05-10T11:15:08;9.73;;;1.60;;
74541;SDS011;63015;45.378;20.360;2023-05-10T11:19:23;5.35;;;1.30;;
74541;SDS011;63015;45.378;20.360;2023-05-10T11:21:31;4.28;;;1.17;;
74541;SDS011;63015;45.378;20.360;2023-05-10T11:23:54;4.82;;;1.60;;
74541;SDS011;63015;45.378;20.360;2023-05-10T11:25:56;5.90;;;1.33;;
74541;SDS011;63015;45.378;20.360;2023-05-10T11:27:57;6.47;;;1.50;;
74541;SDS011;63015;45.378;20.360;2023-05-10T11:30:04;5.97;;;1.20;;
74541;SDS011;63015;45.378;20.360;2023-05-10T11:32:06;4.82;;;1.13;;
74541;SDS011;63015;45.378;20.360;2023-05-10T11:34:08;4.85;;;1.50;;
74541;SDS011;63015;45.378;20.360;2023-05-10T11:36:13;6.40;;;1.38;;
74541;SDS011;63015;45.378;20.360;2023-05-10T11:38:18;3.67;;;1.10;;
74541;SDS011;63015;45.378;20.360;2023-05-10T11:40:21;3.22;;;1.55;;
74541;SDS011;63015;45.378;20.360;2023-05-10T11:42:23;4.20;;;1.58;;
74541;SDS011;63015;45.378;20.360;2023-05-10T11:44:30;5.78;;;1.60;;
74541;SDS011;63015;45.378;20.360;2023-05-10T11:46:32;6.25;;;1.23;;
74541;SDS011;63015;45.378;20.360;2023-05-10T11:48:32;5.97;;;1.63;;
74541;SDS011;63015;45.378;20.360;2023-05-10T11:50:33;5.25;;;1.15;;
74541;SDS011;63015;45.378;20.360;2023-05-10T11:52:37;5.72;;;1.48;;
74541;SDS011;63015;45.378;20.360;2023-05-10T11:54:37;3.10;;;1.42;;
74541;SDS011;63015;45.378;20.360;2023-05-10T11:56:46;6.03;;;1.25;;
74541;SDS011;63015;45.378;20.360;2023-05-10T11:58:52;7.32;;;1.40;;
74541;SDS011;63015;45.378;20.360;2023-05-10T12:00:55;6.80;;;1.40;;
74541;SDS011;63015;45.378;20.360;2023-05-10T12:02:56;6.07;;;1.90;;
74541;SDS011;63015;45.378;20.360;2023-05-10T12:04:57;6.22;;;1.52;;
74541;SDS011;63015;45.378;20.360;2023-05-10T12:06:58;6.82;;;1.65;;
74541;SDS011;63015;45.378;20.360;2023-05-10T12:08:59;4.93;;;1.55;;
74541;SDS011;63015;45.378;20.360;2023-05-10T12:11:06;5.40;;;1.63;;
74541;SDS011;63015;45.378;20.360;2023-05-10T12:13:12;5.53;;;1.50;;
74541;SDS011;63015;45.378;20.360;2023-05-10T12:15:17;3.15;;;1.15;;
74541;SDS011;63015;45.378;20.360;2023-05-10T12:17:19;4.15;;;1.60;;
74541;SDS011;63015;45.378;20.360;2023-05-10T12:19:20;3.97;;;1.40;;
74541;SDS011;63015;45.378;20.360;2023-05-10T12:21:21;5.32;;;1.35;;
74541;SDS011;63015;45.378;20.360;2023-05-10T12:23:22;7.63;;;1.63;;
74541;SDS011;63015;45.378;20.360;2023-05-10T12:25:23;6.32;;;1.52;;
74541;SDS011;63015;45.378;20.360;2023-05-10T12:27:32;7.60;;;1.60;;
74541;SDS011;63015;45.378;20.360;2023-05-10T12:29:33;4.35;;;1.55;;
74541;SDS011;63015;45.378;20.360;2023-05-10T12:31:43;8.00;;;2.05;;
74541;SDS011;63015;45.378;20.360;2023-05-10T12:33:55;4.38;;;1.67;;
74541;SDS011;63015;45.378;20.360;2023-05-10T12:35:58;3.45;;;1.40;;
74541;SDS011;63015;45.378;20.360;2023-05-10T12:37:59;10.23;;;1.80;;
74541;SDS011;63015;45.378;20.360;2023-05-10T12:40:00;6.97;;;1.50;;
74541;SDS011;63015;45.378;20.360;2023-05-10T12:42:00;4.13;;;1.30;;